sensor_id;sensor_type;location;lat;lon;timestamp;temperature;humidity
290;DHT22;13193;48.874;9.086;2023-02-01T00:02:24;6.10;1.00
290;DHT22;13193;48.874;9.086;2023-02-01T00:04:50;6.10;1.00
290;DHT22;13193;48.874;9.086;2023-02-01T00:07:15;6.30;1.00
290;DHT22;13193;48.874;9.086;2023-02-01T00:09:41;6.00;1.00
290;DHT22;13193;48.874;9.086;2023-02-01T00:12:06;6.00;1.00
290;DHT22;13193;48.874;9.086;2023-02-01T00:14:32;5.90;1.00
290;DHT22;13193;48.874;9.086;2023-02-01T00:17:05;5.90;1.00
290;DHT22;13193;48.874;9.086;2023-02-01T00:19:33;5.90;1.00
290;DHT22;13193;48.874;9.086;2023-02-01T00:21:58;5.80;1.00
290;DHT22;13193;48.874;9.086;2023-02-01T00:24:24;6.20;1.00
290;DHT22;13193;48.874;9.086;2023-02-01T00:26:52;5.80;1.00
290;DHT22;13193;48.874;9.086;2023-02-01T00:29:20;5.80;1.00
290;DHT22;13193;48.874;9.086;2023-02-01T00:31:45;5.70;1.00
290;DHT22;13193;48.874;9.086;2023-02-01T00:34:15;5.60;1.00
290;DHT22;13193;48.874;9.086;2023-02-01T00:36:42;5.60;1.00
290;DHT22;13193;48.874;9.086;2023-02-01T00:39:10;5.50;1.00
290;DHT22;13193;48.874;9.086;2023-02-01T00:41:36;5.80;1.00
290;DHT22;13193;48.874;9.086;2023-02-01T00:44:02;5.50;1.00
290;DHT22;13193;48.874;9.086;2023-02-01T00:46:28;5.50;1.00
290;DHT22;13193;48.874;9.086;2023-02-01T00:48:54;5.50;1.00
290;DHT22;13193;48.874;9.086;2023-02-01T00:51:23;5.60;1.00
290;DHT22;13193;48.874;9.086;2023-02-01T00:53:49;5.50;1.00
290;DHT22;13193;48.874;9.086;2023-02-01T00:56:15;5.50;1.00
290;DHT22;13193;48.874;9.086;2023-02-01T00:58:41;5.70;1.00
290;DHT22;13193;48.874;9.086;2023-02-01T01:01:16;5.50;1.00
290;DHT22;13193;48.874;9.086;2023-02-01T01:03:44;5.40;1.00
290;DHT22;13193;48.874;9.086;2023-02-01T01:06:17;5.40;1.00
290;DHT22;13193;48.874;9.086;2023-02-01T01:08:43;5.30;1.00
290;DHT22;13193;48.874;9.086;2023-02-01T01:11:11;5.30;1.00
290;DHT22;13193;48.874;9.086;2023-02-01T01:13:37;5.20;1.00
290;DHT22;13193;48.874;9.086;2023-02-01T01:16:05;5.20;1.00
290;DHT22;13193;48.874;9.086;2023-02-01T01:18:33;5.10;1.00
290;DHT22;13193;48.874;9.086;2023-02-01T01:20:59;5.10;1.00
290;DHT22;13193;48.874;9.086;2023-02-01T01:23:25;5.10;1.00
290;DHT22;13193;48.874;9.086;2023-02-01T01:25:50;5.00;1.00
290;DHT22;13193;48.874;9.086;2023-02-01T01:28:16;5.10;1.00
290;DHT22;13193;48.874;9.086;2023-02-01T01:30:42;5.10;1.00
290;DHT22;13193;48.874;9.086;2023-02-01T01:33:07;5.20;1.00
290;DHT22;13193;48.874;9.086;2023-02-01T01:35:33;5.20;1.00
290;DHT22;13193;48.874;9.086;2023-02-01T01:38:01;5.20;1.00
290;DHT22;13193;48.874;9.086;2023-02-01T01:40:28;5.30;1.00
290;DHT22;13193;48.874;9.086;2023-02-01T01:42:55;5.30;1.00
290;DHT22;13193;48.874;9.086;2023-02-01T01:45:31;5.30;1.00
290;DHT22;13193;48.874;9.086;2023-02-01T01:48:00;5.40;1.00
290;DHT22;13193;48.874;9.086;2023-02-01T01:50:42;5.40;1.00
290;DHT22;13193;48.874;9.086;2023-02-01T01:53:12;5.50;1.00
290;DHT22;13193;48.874;9.086;2023-02-01T01:55:41;5.50;1.00
290;DHT22;13193;48.874;9.086;2023-02-01T01:58:14;5.50;1.00
290;DHT22;13193;48.874;9.086;2023-02-01T02:00:45;5.60;1.00
290;DHT22;13193;48.874;9.086;2023-02-01T02:03:19;5.60;1.00
290;DHT22;13193;48.874;9.086;2023-02-01T02:05:46;5.80;1.00
290;DHT22;13193;48.874;9.086;2023-02-01T02:08:13;5.50;1.00
290;DHT22;13193;48.874;9.086;2023-02-01T02:10:39;5.60;1.00
290;DHT22;13193;48.874;9.086;2023-02-01T02:13:23;5.70;1.00
290;DHT22;13193;48.874;9.086;2023-02-01T02:18:48;5.70;1.00
290;DHT22;13193;48.874;9.086;2023-02-01T02:30:36;5.90;1.00
290;DHT22;13193;48.874;9.086;2023-02-01T02:36:16;5.90;1.00
290;DHT22;13193;48.874;9.086;2023-02-01T02:39:08;5.90;1.00
290;DHT22;13193;48.874;9.086;2023-02-01T02:41:40;5.90;1.00
290;DHT22;13193;48.874;9.086;2023-02-01T02:44:39;5.90;1.00
290;DHT22;13193;48.874;9.086;2023-02-01T02:47:54;6.00;1.00
290;DHT22;13193;48.874;9.086;2023-02-01T02:50:32;6.00;1.00
290;DHT22;13193;48.874;9.086;2023-02-01T02:53:47;6.00;1.00
290;DHT22;13193;48.874;9.086;2023-02-01T02:56:33;6.00;1.00
290;DHT22;13193;48.874;9.086;2023-02-01T02:59:21;5.90;1.00
290;DHT22;13193;48.874;9.086;2023-02-01T03:02:08;5.90;1.00
290;DHT22;13193;48.874;9.086;2023-02-01T03:04:53;5.90;1.00
290;DHT22;13193;48.874;9.086;2023-02-01T03:12:53;6.00;1.00
290;DHT22;13193;48.874;9.086;2023-02-01T03:15:43;6.00;1.00
290;DHT22;13193;48.874;9.086;2023-02-01T03:18:20;5.90;1.00
290;DHT22;13193;48.874;9.086;2023-02-01T03:20:51;5.90;1.00
290;DHT22;13193;48.874;9.086;2023-02-01T03:23:20;5.90;1.00
290;DHT22;13193;48.874;9.086;2023-02-01T03:25:50;5.90;1.00
290;DHT22;13193;48.874;9.086;2023-02-01T03:28:17;5.90;1.00
290;DHT22;13193;48.874;9.086;2023-02-01T03:30:46;6.00;1.00
290;DHT22;13193;48.874;9.086;2023-02-01T03:33:16;5.70;1.00
290;DHT22;13193;48.874;9.086;2023-02-01T03:38:34;5.70;1.00
290;DHT22;13193;48.874;9.086;2023-02-01T03:41:22;5.70;1.00
290;DHT22;13193;48.874;9.086;2023-02-01T03:44:04;5.70;1.00
290;DHT22;13193;48.874;9.086;2023-02-01T03:49:41;5.70;1.00
290;DHT22;13193;48.874;9.086;2023-02-01T03:52:15;5.60;1.00
290;DHT22;13193;48.874;9.086;2023-02-01T03:54:42;5.70;1.00
290;DHT22;13193;48.874;9.086;2023-02-01T03:57:13;5.70;1.00
290;DHT22;13193;48.874;9.086;2023-02-01T03:59:41;5.60;1.00
290;DHT22;13193;48.874;9.086;2023-02-01T04:02:07;5.80;1.00
290;DHT22;13193;48.874;9.086;2023-02-01T04:04:34;5.70;1.00
290;DHT22;13193;48.874;9.086;2023-02-01T04:07:00;5.70;1.00
290;DHT22;13193;48.874;9.086;2023-02-01T04:09:27;5.80;1.00
290;DHT22;13193;48.874;9.086;2023-02-01T04:11:52;5.80;1.00
290;DHT22;13193;48.874;9.086;2023-02-01T04:14:18;5.80;1.00
290;DHT22;13193;48.874;9.086;2023-02-01T04:16:45;5.80;1.00
290;DHT22;13193;48.874;9.086;2023-02-01T04:19:12;6.10;1.00
290;DHT22;13193;48.874;9.086;2023-02-01T04:21:38;5.80;1.00
290;DHT22;13193;48.874;9.086;2023-02-01T04:24:04;5.90;1.00
290;DHT22;13193;48.874;9.086;2023-02-01T04:26:30;5.80;1.00
290;DHT22;13193;48.874;9.086;2023-02-01T04:28:55;5.70;1.00
290;DHT22;13193;48.874;9.086;2023-02-01T04:31:21;5.60;1.00
290;DHT22;13193;48.874;9.086;2023-02-01T04:33:54;5.70;1.00
290;DHT22;13193;48.874;9.086;2023-02-01T04:36:23;5.70;1.00
290;DHT22;13193;48.874;9.086;2023-02-01T04:38:50;5.60;1.00
290;DHT22;13193;48.874;9.086;2023-02-01T04:41:16;5.60;1.00
290;DHT22;13193;48.874;9.086;2023-02-01T04:43:46;5.70;1.00
290;DHT22;13193;48.874;9.086;2023-02-01T04:46:12;5.70;1.00
290;DHT22;13193;48.874;9.086;2023-02-01T04:48:37;5.90;1.00
290;DHT22;13193;48.874;9.086;2023-02-01T04:51:03;5.80;1.00
290;DHT22;13193;48.874;9.086;2023-02-01T04:53:29;5.80;1.00
290;DHT22;13193;48.874;9.086;2023-02-01T04:55:55;5.80;1.00
290;DHT22;13193;48.874;9.086;2023-02-01T04:58:21;5.80;1.00
290;DHT22;13193;48.874;9.086;2023-02-01T05:00:47;5.80;1.00
290;DHT22;13193;48.874;9.086;2023-02-01T05:03:13;5.90;1.00
290;DHT22;13193;48.874;9.086;2023-02-01T05:05:38;6.00;1.00
290;DHT22;13193;48.874;9.086;2023-02-01T05:08:04;5.80;1.00
290;DHT22;13193;48.874;9.086;2023-02-01T05:10:30;5.90;1.00
290;DHT22;13193;48.874;9.086;2023-02-01T05:12:56;5.90;1.00
290;DHT22;13193;48.874;9.086;2023-02-01T05:15:41;6.00;1.00
290;DHT22;13193;48.874;9.086;2023-02-01T05:18:06;6.00;1.00
290;DHT22;13193;48.874;9.086;2023-02-01T05:20:32;6.10;1.00
290;DHT22;13193;48.874;9.086;2023-02-01T05:22:57;6.20;1.00
290;DHT22;13193;48.874;9.086;2023-02-01T05:25:24;6.30;1.00
290;DHT22;13193;48.874;9.086;2023-02-01T05:27:49;6.30;1.00
290;DHT22;13193;48.874;9.086;2023-02-01T05:30:15;6.40;1.00
290;DHT22;13193;48.874;9.086;2023-02-01T05:32:41;6.50;1.00
290;DHT22;13193;48.874;9.086;2023-02-01T05:35:07;6.50;1.00
290;DHT22;13193;48.874;9.086;2023-02-01T05:37:33;6.50;1.00
290;DHT22;13193;48.874;9.086;2023-02-01T05:39:58;6.60;1.00
290;DHT22;13193;48.874;9.086;2023-02-01T05:42:24;6.50;1.00
290;DHT22;13193;48.874;9.086;2023-02-01T05:44:49;6.60;1.00
290;DHT22;13193;48.874;9.086;2023-02-01T05:47:15;6.90;1.00
290;DHT22;13193;48.874;9.086;2023-02-01T05:49:41;6.60;1.00
290;DHT22;13193;48.874;9.086;2023-02-01T05:52:06;6.70;1.00
290;DHT22;13193;48.874;9.086;2023-02-01T05:54:32;6.70;1.00
290;DHT22;13193;48.874;9.086;2023-02-01T05:56:57;6.60;1.00
290;DHT22;13193;48.874;9.086;2023-02-01T05:59:23;6.60;1.00
290;DHT22;13193;48.874;9.086;2023-02-01T06:01:49;6.60;1.00
290;DHT22;13193;48.874;9.086;2023-02-01T06:04:14;6.60;1.00
290;DHT22;13193;48.874;9.086;2023-02-01T06:06:40;6.70;1.00
290;DHT22;13193;48.874;9.086;2023-02-01T06:09:06;6.80;1.00
290;DHT22;13193;48.874;9.086;2023-02-01T06:11:32;6.70;1.00
290;DHT22;13193;48.874;9.086;2023-02-01T06:13:57;6.60;1.00
290;DHT22;13193;48.874;9.086;2023-02-01T06:16:23;6.60;1.00
290;DHT22;13193;48.874;9.086;2023-02-01T06:18:49;6.70;1.00
290;DHT22;13193;48.874;9.086;2023-02-01T06:21:15;6.70;1.00
290;DHT22;13193;48.874;9.086;2023-02-01T06:23:49;6.70;1.00
290;DHT22;13193;48.874;9.086;2023-02-01T06:26:16;6.90;1.00
290;DHT22;13193;48.874;9.086;2023-02-01T06:28:43;6.80;1.00
290;DHT22;13193;48.874;9.086;2023-02-01T06:31:09;6.80;1.00
290;DHT22;13193;48.874;9.086;2023-02-01T06:33:36;6.80;1.00
290;DHT22;13193;48.874;9.086;2023-02-01T06:36:05;6.80;1.00
290;DHT22;13193;48.874;9.086;2023-02-01T06:38:31;6.70;1.00
290;DHT22;13193;48.874;9.086;2023-02-01T06:41:00;6.80;1.00
290;DHT22;13193;48.874;9.086;2023-02-01T06:43:26;6.80;1.00
290;DHT22;13193;48.874;9.086;2023-02-01T06:45:52;6.70;1.00
290;DHT22;13193;48.874;9.086;2023-02-01T06:48:18;6.80;1.00
290;DHT22;13193;48.874;9.086;2023-02-01T06:50:44;6.70;1.00
290;DHT22;13193;48.874;9.086;2023-02-01T06:53:11;6.80;1.00
290;DHT22;13193;48.874;9.086;2023-02-01T06:55:36;6.80;1.00
290;DHT22;13193;48.874;9.086;2023-02-01T06:58:02;6.80;1.00
290;DHT22;13193;48.874;9.086;2023-02-01T07:00:30;6.80;1.00
290;DHT22;13193;48.874;9.086;2023-02-01T07:02:57;6.80;1.00
290;DHT22;13193;48.874;9.086;2023-02-01T07:05:23;6.90;1.00
290;DHT22;13193;48.874;9.086;2023-02-01T07:07:49;6.90;1.00
290;DHT22;13193;48.874;9.086;2023-02-01T07:10:15;6.90;1.00
290;DHT22;13193;48.874;9.086;2023-02-01T07:12:41;6.90;1.00
290;DHT22;13193;48.874;9.086;2023-02-01T07:15:07;6.90;1.00
290;DHT22;13193;48.874;9.086;2023-02-01T07:17:32;6.90;1.00
290;DHT22;13193;48.874;9.086;2023-02-01T07:19:58;6.90;1.00
290;DHT22;13193;48.874;9.086;2023-02-01T07:22:25;6.90;1.00
290;DHT22;13193;48.874;9.086;2023-02-01T07:24:52;7.00;1.00
290;DHT22;13193;48.874;9.086;2023-02-01T07:27:19;6.90;1.00
290;DHT22;13193;48.874;9.086;2023-02-01T07:29:46;6.90;1.00
290;DHT22;13193;48.874;9.086;2023-02-01T07:32:12;6.90;1.00
290;DHT22;13193;48.874;9.086;2023-02-01T07:34:37;7.00;1.00
290;DHT22;13193;48.874;9.086;2023-02-01T07:37:03;7.00;1.00
290;DHT22;13193;48.874;9.086;2023-02-01T07:39:28;7.00;1.00
290;DHT22;13193;48.874;9.086;2023-02-01T07:41:57;7.00;1.00
290;DHT22;13193;48.874;9.086;2023-02-01T07:44:22;7.10;1.00
290;DHT22;13193;48.874;9.086;2023-02-01T07:46:49;7.10;1.00
290;DHT22;13193;48.874;9.086;2023-02-01T07:49:14;7.20;1.00
290;DHT22;13193;48.874;9.086;2023-02-01T07:51:40;7.20;1.00
290;DHT22;13193;48.874;9.086;2023-02-01T07:54:06;7.20;1.00
290;DHT22;13193;48.874;9.086;2023-02-01T07:56:31;7.20;1.00
290;DHT22;13193;48.874;9.086;2023-02-01T07:58:57;7.20;1.00
290;DHT22;13193;48.874;9.086;2023-02-01T08:01:26;7.20;1.00
290;DHT22;13193;48.874;9.086;2023-02-01T08:03:57;7.30;1.00
290;DHT22;13193;48.874;9.086;2023-02-01T08:06:25;7.20;1.00
290;DHT22;13193;48.874;9.086;2023-02-01T08:08:51;7.30;1.00
290;DHT22;13193;48.874;9.086;2023-02-01T08:11:18;7.30;1.00
290;DHT22;13193;48.874;9.086;2023-02-01T08:13:45;7.30;1.00
290;DHT22;13193;48.874;9.086;2023-02-01T08:16:12;7.40;1.00
290;DHT22;13193;48.874;9.086;2023-02-01T08:18:38;7.40;1.00
290;DHT22;13193;48.874;9.086;2023-02-01T08:23:35;7.60;1.00
290;DHT22;13193;48.874;9.086;2023-02-01T08:26:25;7.60;1.00
290;DHT22;13193;48.874;9.086;2023-02-01T08:28:53;7.70;1.00
290;DHT22;13193;48.874;9.086;2023-02-01T08:31:20;7.80;1.00
290;DHT22;13193;48.874;9.086;2023-02-01T08:33:56;7.90;1.00
290;DHT22;13193;48.874;9.086;2023-02-01T08:36:22;8.00;1.00
290;DHT22;13193;48.874;9.086;2023-02-01T08:38:49;8.10;1.00
290;DHT22;13193;48.874;9.086;2023-02-01T08:41:18;8.20;1.00
290;DHT22;13193;48.874;9.086;2023-02-01T08:43:44;8.20;1.00
290;DHT22;13193;48.874;9.086;2023-02-01T08:46:10;8.40;1.00
290;DHT22;13193;48.874;9.086;2023-02-01T08:48:37;8.40;1.00
290;DHT22;13193;48.874;9.086;2023-02-01T08:51:10;8.40;1.00
290;DHT22;13193;48.874;9.086;2023-02-01T08:53:37;8.30;1.00
290;DHT22;13193;48.874;9.086;2023-02-01T08:56:04;8.30;1.00
290;DHT22;13193;48.874;9.086;2023-02-01T08:58:29;8.20;1.00
290;DHT22;13193;48.874;9.086;2023-02-01T09:00:55;8.20;1.00
290;DHT22;13193;48.874;9.086;2023-02-01T09:03:20;8.00;1.00
290;DHT22;13193;48.874;9.086;2023-02-01T09:05:46;8.00;1.00
290;DHT22;13193;48.874;9.086;2023-02-01T09:08:13;7.90;1.00
290;DHT22;13193;48.874;9.086;2023-02-01T09:10:41;7.80;1.00
290;DHT22;13193;48.874;9.086;2023-02-01T09:13:07;7.80;1.00
290;DHT22;13193;48.874;9.086;2023-02-01T09:15:33;7.80;1.00
290;DHT22;13193;48.874;9.086;2023-02-01T09:17:59;7.60;1.00
290;DHT22;13193;48.874;9.086;2023-02-01T09:20:25;7.60;1.00
290;DHT22;13193;48.874;9.086;2023-02-01T09:22:52;7.60;1.00
290;DHT22;13193;48.874;9.086;2023-02-01T09:25:18;7.70;1.00
290;DHT22;13193;48.874;9.086;2023-02-01T09:27:44;7.70;1.00
290;DHT22;13193;48.874;9.086;2023-02-01T09:30:10;7.80;1.00
290;DHT22;13193;48.874;9.086;2023-02-01T09:32:36;7.90;1.00
290;DHT22;13193;48.874;9.086;2023-02-01T09:35:01;8.00;1.00
290;DHT22;13193;48.874;9.086;2023-02-01T09:37:27;8.00;1.00
290;DHT22;13193;48.874;9.086;2023-02-01T09:39:53;8.00;1.00
290;DHT22;13193;48.874;9.086;2023-02-01T09:45:36;8.10;1.00
290;DHT22;13193;48.874;9.086;2023-02-01T09:48:15;8.20;1.00
290;DHT22;13193;48.874;9.086;2023-02-01T09:50:45;8.20;1.00
290;DHT22;13193;48.874;9.086;2023-02-01T09:53:40;8.10;1.00
290;DHT22;13193;48.874;9.086;2023-02-01T09:56:33;8.20;1.00
290;DHT22;13193;48.874;9.086;2023-02-01T10:01:43;8.40;1.00
290;DHT22;13193;48.874;9.086;2023-02-01T10:04:12;8.40;1.00
290;DHT22;13193;48.874;9.086;2023-02-01T10:07:13;8.30;1.00
290;DHT22;13193;48.874;9.086;2023-02-01T10:09:50;8.30;1.00
290;DHT22;13193;48.874;9.086;2023-02-01T10:28:45;8.50;1.00
290;DHT22;13193;48.874;9.086;2023-02-01T10:31:11;8.60;1.00
290;DHT22;13193;48.874;9.086;2023-02-01T10:33:43;8.70;1.00
290;DHT22;13193;48.874;9.086;2023-02-01T10:36:16;8.80;1.00
290;DHT22;13193;48.874;9.086;2023-02-01T10:38:44;8.80;1.00
290;DHT22;13193;48.874;9.086;2023-02-01T10:41:15;8.80;1.00
290;DHT22;13193;48.874;9.086;2023-02-01T10:43:42;8.80;1.00
290;DHT22;13193;48.874;9.086;2023-02-01T10:46:08;8.90;1.00
290;DHT22;13193;48.874;9.086;2023-02-01T10:48:34;8.80;1.00
290;DHT22;13193;48.874;9.086;2023-02-01T10:53:46;8.70;1.00
290;DHT22;13193;48.874;9.086;2023-02-01T10:56:13;8.70;1.00
290;DHT22;13193;48.874;9.086;2023-02-01T10:58:48;8.60;1.00
290;DHT22;13193;48.874;9.086;2023-02-01T11:01:43;8.60;1.00
290;DHT22;13193;48.874;9.086;2023-02-01T11:04:19;8.60;1.00
290;DHT22;13193;48.874;9.086;2023-02-01T11:06:47;8.60;1.00
290;DHT22;13193;48.874;9.086;2023-02-01T11:09:22;8.60;1.00
290;DHT22;13193;48.874;9.086;2023-02-01T11:14:20;8.60;1.00
290;DHT22;13193;48.874;9.086;2023-02-01T11:16:57;8.60;1.00
290;DHT22;13193;48.874;9.086;2023-02-01T11:19:23;8.70;1.00
290;DHT22;13193;48.874;9.086;2023-02-01T11:21:54;8.80;1.00
290;DHT22;13193;48.874;9.086;2023-02-01T11:26:45;8.90;1.00
290;DHT22;13193;48.874;9.086;2023-02-01T11:29:14;9.00;1.00
290;DHT22;13193;48.874;9.086;2023-02-01T11:31:44;9.10;1.00
290;DHT22;13193;48.874;9.086;2023-02-01T11:34:16;9.20;1.00
290;DHT22;13193;48.874;9.086;2023-02-01T11:36:45;9.10;1.00
290;DHT22;13193;48.874;9.086;2023-02-01T11:41:44;9.20;1.00
290;DHT22;13193;48.874;9.086;2023-02-01T11:44:30;9.30;1.00
290;DHT22;13193;48.874;9.086;2023-02-01T11:47:23;9.40;1.00
290;DHT22;13193;48.874;9.086;2023-02-01T11:49:54;9.40;1.00
290;DHT22;13193;48.874;9.086;2023-02-01T11:52:51;9.50;1.00
290;DHT22;13193;48.874;9.086;2023-02-01T11:55:40;9.60;1.00
290;DHT22;13193;48.874;9.086;2023-02-01T12:00:53;9.70;1.00
290;DHT22;13193;48.874;9.086;2023-02-01T12:09:37;9.90;1.00
290;DHT22;13193;48.874;9.086;2023-02-01T12:22:47;9.30;1.00
290;DHT22;13193;48.874;9.086;2023-02-01T12:30:58;9.10;1.00
290;DHT22;13193;48.874;9.086;2023-02-01T12:33:51;9.10;1.00
290;DHT22;13193;48.874;9.086;2023-02-01T12:39:34;9.10;1.00
290;DHT22;13193;48.874;9.086;2023-02-01T12:42:21;8.90;1.00
290;DHT22;13193;48.874;9.086;2023-02-01T12:45:01;8.90;1.00
290;DHT22;13193;48.874;9.086;2023-02-01T12:47:52;8.90;1.00
290;DHT22;13193;48.874;9.086;2023-02-01T12:52:53;9.00;1.00
290;DHT22;13193;48.874;9.086;2023-02-01T12:55:42;8.80;1.00
290;DHT22;13193;48.874;9.086;2023-02-01T12:58:24;8.70;1.00
290;DHT22;13193;48.874;9.086;2023-02-01T13:01:03;8.60;1.00
290;DHT22;13193;48.874;9.086;2023-02-01T13:03:42;8.60;1.00
290;DHT22;13193;48.874;9.086;2023-02-01T13:06:13;8.60;1.00
290;DHT22;13193;48.874;9.086;2023-02-01T13:11:20;8.20;1.00
290;DHT22;13193;48.874;9.086;2023-02-01T13:14:19;8.20;1.00
290;DHT22;13193;48.874;9.086;2023-02-01T13:16:49;8.20;1.00
290;DHT22;13193;48.874;9.086;2023-02-01T13:19:45;8.20;1.00
290;DHT22;13193;48.874;9.086;2023-02-01T13:22:31;8.30;1.00
290;DHT22;13193;48.874;9.086;2023-02-01T13:25:00;8.30;1.00
290;DHT22;13193;48.874;9.086;2023-02-01T13:27:29;8.40;1.00
290;DHT22;13193;48.874;9.086;2023-02-01T13:30:05;8.40;1.00
290;DHT22;13193;48.874;9.086;2023-02-01T13:33:03;8.40;1.00
290;DHT22;13193;48.874;9.086;2023-02-01T13:41:19;8.30;1.00
290;DHT22;13193;48.874;9.086;2023-02-01T13:43:51;8.30;1.00
290;DHT22;13193;48.874;9.086;2023-02-01T13:46:18;8.30;1.00
290;DHT22;13193;48.874;9.086;2023-02-01T13:48:55;8.30;1.00
290;DHT22;13193;48.874;9.086;2023-02-01T13:51:40;8.40;1.00
290;DHT22;13193;48.874;9.086;2023-02-01T13:54:06;8.40;1.00
290;DHT22;13193;48.874;9.086;2023-02-01T13:56:42;8.40;1.00
290;DHT22;13193;48.874;9.086;2023-02-01T14:05:04;8.40;1.00
290;DHT22;13193;48.874;9.086;2023-02-01T14:07:33;8.30;1.00
290;DHT22;13193;48.874;9.086;2023-02-01T14:10:04;8.30;1.00
290;DHT22;13193;48.874;9.086;2023-02-01T14:12:47;8.30;1.00
290;DHT22;13193;48.874;9.086;2023-02-01T14:15:24;8.30;1.00
290;DHT22;13193;48.874;9.086;2023-02-01T14:17:51;8.20;1.00
290;DHT22;13193;48.874;9.086;2023-02-01T14:20:40;8.20;1.00
290;DHT22;13193;48.874;9.086;2023-02-01T14:23:12;8.10;1.00
290;DHT22;13193;48.874;9.086;2023-02-01T14:25:39;8.10;1.00
290;DHT22;13193;48.874;9.086;2023-02-01T14:28:23;8.00;1.00
290;DHT22;13193;48.874;9.086;2023-02-01T14:30:50;8.00;1.00
290;DHT22;13193;48.874;9.086;2023-02-01T14:33:22;8.10;1.00
290;DHT22;13193;48.874;9.086;2023-02-01T14:36:06;8.10;1.00
290;DHT22;13193;48.874;9.086;2023-02-01T14:38:33;8.00;1.00
290;DHT22;13193;48.874;9.086;2023-02-01T14:41:32;8.00;1.00
290;DHT22;13193;48.874;9.086;2023-02-01T14:49:47;7.80;1.00
290;DHT22;13193;48.874;9.086;2023-02-01T14:52:17;7.80;1.00
290;DHT22;13193;48.874;9.086;2023-02-01T14:54:48;7.70;1.00
290;DHT22;13193;48.874;9.086;2023-02-01T14:57:16;7.70;1.00
290;DHT22;13193;48.874;9.086;2023-02-01T14:59:45;7.70;1.00
290;DHT22;13193;48.874;9.086;2023-02-01T15:02:24;7.60;1.00
290;DHT22;13193;48.874;9.086;2023-02-01T15:04:57;7.60;1.00
290;DHT22;13193;48.874;9.086;2023-02-01T15:07:26;7.60;1.00
290;DHT22;13193;48.874;9.086;2023-02-01T15:12:50;7.60;1.00
290;DHT22;13193;48.874;9.086;2023-02-01T15:15:21;7.60;1.00
290;DHT22;13193;48.874;9.086;2023-02-01T15:18:01;7.60;1.00
290;DHT22;13193;48.874;9.086;2023-02-01T15:20:29;7.60;1.00
290;DHT22;13193;48.874;9.086;2023-02-01T15:23:04;7.60;1.00
290;DHT22;13193;48.874;9.086;2023-02-01T15:25:36;7.60;1.00
290;DHT22;13193;48.874;9.086;2023-02-01T15:28:02;7.60;1.00
290;DHT22;13193;48.874;9.086;2023-02-01T15:30:31;7.60;1.00
290;DHT22;13193;48.874;9.086;2023-02-01T15:33:17;7.70;1.00
290;DHT22;13193;48.874;9.086;2023-02-01T15:35:45;7.60;1.00
290;DHT22;13193;48.874;9.086;2023-02-01T15:41:12;7.60;1.00
290;DHT22;13193;48.874;9.086;2023-02-01T15:44:04;7.70;1.00
290;DHT22;13193;48.874;9.086;2023-02-01T15:46:36;7.60;1.00
290;DHT22;13193;48.874;9.086;2023-02-01T15:49:04;7.60;1.00
290;DHT22;13193;48.874;9.086;2023-02-01T15:51:31;7.60;1.00
290;DHT22;13193;48.874;9.086;2023-02-01T15:54:04;7.70;1.00
290;DHT22;13193;48.874;9.086;2023-02-01T15:56:40;7.70;1.00
290;DHT22;13193;48.874;9.086;2023-02-01T15:59:15;7.70;1.00
290;DHT22;13193;48.874;9.086;2023-02-01T16:01:42;7.60;1.00
290;DHT22;13193;48.874;9.086;2023-02-01T16:04:19;7.60;1.00
290;DHT22;13193;48.874;9.086;2023-02-01T16:06:54;7.60;1.00
290;DHT22;13193;48.874;9.086;2023-02-01T16:09:23;7.50;1.00
290;DHT22;13193;48.874;9.086;2023-02-01T16:11:56;7.50;1.00
290;DHT22;13193;48.874;9.086;2023-02-01T16:14:23;7.50;1.00
290;DHT22;13193;48.874;9.086;2023-02-01T16:16:49;7.50;1.00
290;DHT22;13193;48.874;9.086;2023-02-01T16:19:15;7.50;1.00
290;DHT22;13193;48.874;9.086;2023-02-01T16:21:40;7.40;1.00
290;DHT22;13193;48.874;9.086;2023-02-01T16:24:06;7.50;1.00
290;DHT22;13193;48.874;9.086;2023-02-01T16:26:33;7.50;1.00
290;DHT22;13193;48.874;9.086;2023-02-01T16:28:59;7.50;1.00
290;DHT22;13193;48.874;9.086;2023-02-01T16:31:35;7.60;1.00
290;DHT22;13193;48.874;9.086;2023-02-01T16:34:01;7.40;1.00
290;DHT22;13193;48.874;9.086;2023-02-01T16:36:27;7.40;1.00
290;DHT22;13193;48.874;9.086;2023-02-01T16:38:54;7.40;1.00
290;DHT22;13193;48.874;9.086;2023-02-01T16:41:21;7.50;1.00
290;DHT22;13193;48.874;9.086;2023-02-01T16:43:52;7.50;1.00
290;DHT22;13193;48.874;9.086;2023-02-01T16:46:21;7.40;1.00
290;DHT22;13193;48.874;9.086;2023-02-01T16:48:59;7.40;1.00
290;DHT22;13193;48.874;9.086;2023-02-01T16:51:29;7.40;1.00
290;DHT22;13193;48.874;9.086;2023-02-01T16:53:57;7.30;1.00
290;DHT22;13193;48.874;9.086;2023-02-01T16:56:30;7.30;1.00
290;DHT22;13193;48.874;9.086;2023-02-01T16:58:56;7.30;1.00
290;DHT22;13193;48.874;9.086;2023-02-01T17:01:22;7.30;1.00
290;DHT22;13193;48.874;9.086;2023-02-01T17:03:48;7.20;1.00
290;DHT22;13193;48.874;9.086;2023-02-01T17:06:17;7.20;1.00
290;DHT22;13193;48.874;9.086;2023-02-01T17:08:53;7.20;1.00
290;DHT22;13193;48.874;9.086;2023-02-01T17:11:20;7.20;1.00
290;DHT22;13193;48.874;9.086;2023-02-01T17:13:46;7.10;1.00
290;DHT22;13193;48.874;9.086;2023-02-01T17:18:44;7.20;1.00
290;DHT22;13193;48.874;9.086;2023-02-01T17:21:11;7.20;1.00
290;DHT22;13193;48.874;9.086;2023-02-01T17:23:38;7.20;1.00
290;DHT22;13193;48.874;9.086;2023-02-01T17:26:05;7.20;1.00
290;DHT22;13193;48.874;9.086;2023-02-01T17:28:33;7.20;1.00
290;DHT22;13193;48.874;9.086;2023-02-01T17:30:59;7.20;1.00
290;DHT22;13193;48.874;9.086;2023-02-01T17:33:31;7.30;1.00
290;DHT22;13193;48.874;9.086;2023-02-01T17:35:57;7.30;1.00
290;DHT22;13193;48.874;9.086;2023-02-01T17:38:26;7.30;1.00
290;DHT22;13193;48.874;9.086;2023-02-01T17:40:52;7.30;1.00
290;DHT22;13193;48.874;9.086;2023-02-01T17:43:23;7.40;1.00
290;DHT22;13193;48.874;9.086;2023-02-01T17:45:51;7.40;1.00
290;DHT22;13193;48.874;9.086;2023-02-01T17:48:21;7.40;1.00
290;DHT22;13193;48.874;9.086;2023-02-01T17:50:48;7.40;1.00
290;DHT22;13193;48.874;9.086;2023-02-01T17:53:17;7.40;1.00
290;DHT22;13193;48.874;9.086;2023-02-01T17:55:45;7.50;1.00
290;DHT22;13193;48.874;9.086;2023-02-01T17:58:13;7.40;1.00
290;DHT22;13193;48.874;9.086;2023-02-01T18:00:41;7.30;1.00
290;DHT22;13193;48.874;9.086;2023-02-01T18:05:42;7.30;1.00
290;DHT22;13193;48.874;9.086;2023-02-01T18:08:15;7.30;1.00
290;DHT22;13193;48.874;9.086;2023-02-01T18:10:43;7.30;1.00
290;DHT22;13193;48.874;9.086;2023-02-01T18:13:10;7.30;1.00
290;DHT22;13193;48.874;9.086;2023-02-01T18:15:37;7.30;1.00
290;DHT22;13193;48.874;9.086;2023-02-01T18:18:04;7.30;1.00
290;DHT22;13193;48.874;9.086;2023-02-01T18:20:30;7.20;1.00
290;DHT22;13193;48.874;9.086;2023-02-01T18:22:56;7.20;1.00
290;DHT22;13193;48.874;9.086;2023-02-01T18:25:27;7.20;1.00
290;DHT22;13193;48.874;9.086;2023-02-01T18:27:55;7.30;1.00
290;DHT22;13193;48.874;9.086;2023-02-01T18:30:23;7.20;1.00
290;DHT22;13193;48.874;9.086;2023-02-01T18:32:50;7.20;1.00
290;DHT22;13193;48.874;9.086;2023-02-01T18:35:24;7.20;1.00
290;DHT22;13193;48.874;9.086;2023-02-01T18:37:51;7.20;1.00
290;DHT22;13193;48.874;9.086;2023-02-01T18:40:26;7.20;1.00
290;DHT22;13193;48.874;9.086;2023-02-01T18:42:53;7.20;1.00
290;DHT22;13193;48.874;9.086;2023-02-01T18:47:52;7.20;1.00
290;DHT22;13193;48.874;9.086;2023-02-01T18:50:18;7.30;1.00
290;DHT22;13193;48.874;9.086;2023-02-01T18:52:46;7.30;1.00
290;DHT22;13193;48.874;9.086;2023-02-01T18:55:11;7.20;1.00
290;DHT22;13193;48.874;9.086;2023-02-01T18:57:39;7.30;1.00
290;DHT22;13193;48.874;9.086;2023-02-01T19:00:07;7.20;1.00
290;DHT22;13193;48.874;9.086;2023-02-01T19:02:34;7.20;1.00